sensor_id;sensor_type;location;lat;lon;timestamp;P1;durP1;ratioP1;P2;durP2;ratioP2
64678;SDS011;51094;53.864;27.676;2023-04-25T00:02:01;1.80;;;1.80;;
64678;SDS011;51094;53.864;27.676;2023-04-25T00:04:28;1.60;;;1.60;;
64678;SDS011;51094;53.864;27.676;2023-04-25T00:07:00;1.60;;;1.60;;
64678;SDS011;51094;53.864;27.676;2023-04-25T00:09:31;1.50;;;1.50;;
64678;SDS011;51094;53.864;27.676;2023-04-25T00:12:00;1.50;;;1.50;;
64678;SDS011;51094;53.864;27.676;2023-04-25T00:14:28;1.45;;;1.45;;
64678;SDS011;51094;53.864;27.676;2023-04-25T00:16:55;1.70;;;1.70;;
64678;SDS011;51094;53.864;27.676;2023-04-25T00:19:23;1.60;;;1.60;;
64678;SDS011;51094;53.864;27.676;2023-04-25T00:21:51;1.70;;;1.70;;
64678;SDS011;51094;53.864;27.676;2023-04-25T00:24:18;1.60;;;1.60;;
64678;SDS011;51094;53.864;27.676;2023-04-25T00:26:44;1.55;;;1.55;;
64678;SDS011;51094;53.864;27.676;2023-04-25T00:29:11;1.60;;;1.60;;
64678;SDS011;51094;53.864;27.676;2023-04-25T00:31:38;1.70;;;1.70;;
64678;SDS011;51094;53.864;27.676;2023-04-25T00:34:06;1.50;;;1.50;;
64678;SDS011;51094;53.864;27.676;2023-04-25T00:36:34;1.60;;;1.60;;
64678;SDS011;51094;53.864;27.676;2023-04-25T00:39:01;1.60;;;1.60;;
64678;SDS011;51094;53.864;27.676;2023-04-25T00:41:29;1.50;;;1.50;;
64678;SDS011;51094;53.864;27.676;2023-04-25T00:43:56;1.50;;;1.50;;
64678;SDS011;51094;53.864;27.676;2023-04-25T00:46:25;1.63;;;1.63;;
64678;SDS011;51094;53.864;27.676;2023-04-25T00:48:52;1.60;;;1.60;;
64678;SDS011;51094;53.864;27.676;2023-04-25T00:51:19;1.45;;;1.45;;
64678;SDS011;51094;53.864;27.676;2023-04-25T00:53:48;1.70;;;1.70;;
64678;SDS011;51094;53.864;27.676;2023-04-25T00:56:17;1.58;;;1.58;;
64678;SDS011;51094;53.864;27.676;2023-04-25T00:58:44;1.65;;;1.65;;
64678;SDS011;51094;53.864;27.676;2023-04-25T01:01:12;1.55;;;1.55;;
64678;SDS011;51094;53.864;27.676;2023-04-25T01:03:39;1.60;;;1.60;;
64678;SDS011;51094;53.864;27.676;2023-04-25T01:06:10;1.52;;;1.52;;
64678;SDS011;51094;53.864;27.676;2023-04-25T01:08:38;1.60;;;1.60;;
64678;SDS011;51094;53.864;27.676;2023-04-25T01:11:06;1.60;;;1.60;;
64678;SDS011;51094;53.864;27.676;2023-04-25T01:13:33;1.52;;;1.52;;
64678;SDS011;51094;53.864;27.676;2023-04-25T01:16:03;1.55;;;1.55;;
64678;SDS011;51094;53.864;27.676;2023-04-25T01:18:31;1.55;;;1.55;;
64678;SDS011;51094;53.864;27.676;2023-04-25T01:21:11;1.48;;;1.48;;
64678;SDS011;51094;53.864;27.676;2023-04-25T01:23:40;1.60;;;1.60;;
64678;SDS011;51094;53.864;27.676;2023-04-25T01:26:10;1.65;;;1.65;;
64678;SDS011;51094;53.864;27.676;2023-04-25T01:28:38;1.98;;;1.98;;
64678;SDS011;51094;53.864;27.676;2023-04-25T01:31:09;1.45;;;1.45;;
64678;SDS011;51094;53.864;27.676;2023-04-25T01:33:38;1.60;;;1.60;;
64678;SDS011;51094;53.864;27.676;2023-04-25T01:36:08;1.55;;;1.55;;
64678;SDS011;51094;53.864;27.676;2023-04-25T01:38:35;1.55;;;1.55;;
64678;SDS011;51094;53.864;27.676;2023-04-25T01:41:02;1.60;;;1.60;;
64678;SDS011;51094;53.864;27.676;2023-04-25T01:43:29;1.60;;;1.60;;
64678;SDS011;51094;53.864;27.676;2023-04-25T01:45:56;1.60;;;1.60;;
64678;SDS011;51094;53.864;27.676;2023-04-25T01:50:53;1.42;;;1.42;;
64678;SDS011;51094;53.864;27.676;2023-04-25T01:53:20;1.50;;;1.50;;
64678;SDS011;51094;53.864;27.676;2023-04-25T01:55:47;1.40;;;1.40;;
64678;SDS011;51094;53.864;27.676;2023-04-25T02:01:10;1.70;;;1.70;;
64678;SDS011;51094;53.864;27.676;2023-04-25T02:03:44;2.10;;;2.10;;
64678;SDS011;51094;53.864;27.676;2023-04-25T02:06:23;1.88;;;1.88;;
64678;SDS011;51094;53.864;27.676;2023-04-25T02:08:52;2.00;;;2.00;;
64678;SDS011;51094;53.864;27.676;2023-04-25T02:11:18;1.85;;;1.85;;
64678;SDS011;51094;53.864;27.676;2023-04-25T02:13:55;1.90;;;1.90;;
64678;SDS011;51094;53.864;27.676;2023-04-25T02:16:51;1.70;;;1.70;;
64678;SDS011;51094;53.864;27.676;2023-04-25T02:19:18;1.83;;;1.83;;
64678;SDS011;51094;53.864;27.676;2023-04-25T02:21:46;1.60;;;1.60;;
64678;SDS011;51094;53.864;27.676;2023-04-25T02:24:13;1.90;;;1.90;;
64678;SDS011;51094;53.864;27.676;2023-04-25T02:26:40;1.70;;;1.70;;
64678;SDS011;51094;53.864;27.676;2023-04-25T02:29:07;1.70;;;1.70;;
64678;SDS011;51094;53.864;27.676;2023-04-25T02:31:35;1.70;;;1.70;;
64678;SDS011;51094;53.864;27.676;2023-04-25T02:34:02;1.65;;;1.65;;
64678;SDS011;51094;53.864;27.676;2023-04-25T02:36:29;1.60;;;1.60;;
64678;SDS011;51094;53.864;27.676;2023-04-25T02:38:58;1.55;;;1.55;;
64678;SDS011;51094;53.864;27.676;2023-04-25T02:41:25;1.70;;;1.70;;
64678;SDS011;51094;53.864;27.676;2023-04-25T02:43:54;1.70;;;1.70;;
64678;SDS011;51094;53.864;27.676;2023-04-25T02:46:21;1.90;;;1.90;;
64678;SDS011;51094;53.864;27.676;2023-04-25T02:49:03;1.88;;;1.88;;
64678;SDS011;51094;53.864;27.676;2023-04-25T02:51:30;2.13;;;2.13;;
64678;SDS011;51094;53.864;27.676;2023-04-25T02:53:57;1.90;;;1.90;;
64678;SDS011;51094;53.864;27.676;2023-04-25T02:56:25;2.17;;;2.17;;
64678;SDS011;51094;53.864;27.676;2023-04-25T02:58:53;1.88;;;1.88;;
64678;SDS011;51094;53.864;27.676;2023-04-25T03:01:20;2.10;;;2.10;;
64678;SDS011;51094;53.864;27.676;2023-04-25T03:03:47;2.10;;;2.10;;
64678;SDS011;51094;53.864;27.676;2023-04-25T03:06:15;2.10;;;2.10;;
64678;SDS011;51094;53.864;27.676;2023-04-25T03:08:42;2.40;;;2.40;;
64678;SDS011;51094;53.864;27.676;2023-04-25T03:11:09;2.00;;;2.00;;
64678;SDS011;51094;53.864;27.676;2023-04-25T03:13:39;2.10;;;2.10;;
64678;SDS011;51094;53.864;27.676;2023-04-25T03:16:08;2.10;;;2.10;;
64678;SDS011;51094;53.864;27.676;2023-04-25T03:18:35;2.00;;;1.92;;
64678;SDS011;51094;53.864;27.676;2023-04-25T03:21:02;1.92;;;1.92;;
64678;SDS011;51094;53.864;27.676;2023-04-25T03:23:30;1.98;;;1.98;;
64678;SDS011;51094;53.864;27.676;2023-04-25T03:25:57;1.83;;;1.83;;
64678;SDS011;51094;53.864;27.676;2023-04-25T03:28:24;1.90;;;1.90;;
64678;SDS011;51094;53.864;27.676;2023-04-25T03:30:51;2.08;;;2.08;;
64678;SDS011;51094;53.864;27.676;2023-04-25T03:33:18;2.00;;;2.00;;
64678;SDS011;51094;53.864;27.676;2023-04-25T03:35:45;1.73;;;1.73;;
64678;SDS011;51094;53.864;27.676;2023-04-25T03:38:12;1.85;;;1.85;;
64678;SDS011;51094;53.864;27.676;2023-04-25T03:40:39;1.70;;;1.70;;
64678;SDS011;51094;53.864;27.676;2023-04-25T03:43:27;1.73;;;1.73;;
64678;SDS011;51094;53.864;27.676;2023-04-25T03:45:59;1.65;;;1.65;;
64678;SDS011;51094;53.864;27.676;2023-04-25T03:48:26;1.90;;;1.90;;
64678;SDS011;51094;53.864;27.676;2023-04-25T03:50:54;1.80;;;1.80;;
64678;SDS011;51094;53.864;27.676;2023-04-25T03:53:21;1.70;;;1.70;;
64678;SDS011;51094;53.864;27.676;2023-04-25T03:56:08;1.98;;;1.98;;
64678;SDS011;51094;53.864;27.676;2023-04-25T03:58:37;1.70;;;1.70;;
64678;SDS011;51094;53.864;27.676;2023-04-25T04:01:05;1.73;;;1.73;;
64678;SDS011;51094;53.864;27.676;2023-04-25T04:03:36;1.60;;;1.60;;
64678;SDS011;51094;53.864;27.676;2023-04-25T04:06:04;1.60;;;1.60;;
64678;SDS011;51094;53.864;27.676;2023-04-25T04:08:38;1.50;;;1.50;;
64678;SDS011;51094;53.864;27.676;2023-04-25T04:11:09;1.50;;;1.50;;
64678;SDS011;51094;53.864;27.676;2023-04-25T04:13:37;1.50;;;1.50;;
64678;SDS011;51094;53.864;27.676;2023-04-25T04:16:05;1.60;;;1.60;;
64678;SDS011;51094;53.864;27.676;2023-04-25T04:18:32;1.50;;;1.50;;
64678;SDS011;51094;53.864;27.676;2023-04-25T04:21:00;1.60;;;1.60;;
64678;SDS011;51094;53.864;27.676;2023-04-25T04:23:30;1.45;;;1.45;;
64678;SDS011;51094;53.864;27.676;2023-04-25T04:25:58;1.58;;;1.58;;
64678;SDS011;51094;53.864;27.676;2023-04-25T04:28:52;1.48;;;1.48;;
64678;SDS011;51094;53.864;27.676;2023-04-25T04:31:37;1.60;;;1.60;;
64678;SDS011;51094;53.864;27.676;2023-04-25T04:34:04;1.60;;;1.60;;
64678;SDS011;51094;53.864;27.676;2023-04-25T04:36:33;1.70;;;1.70;;
64678;SDS011;51094;53.864;27.676;2023-04-25T04:39:00;1.48;;;1.48;;
64678;SDS011;51094;53.864;27.676;2023-04-25T04:41:34;1.70;;;1.70;;
64678;SDS011;51094;53.864;27.676;2023-04-25T04:44:11;1.60;;;1.60;;
64678;SDS011;51094;53.864;27.676;2023-04-25T04:46:45;2.08;;;2.08;;
64678;SDS011;51094;53.864;27.676;2023-04-25T04:49:39;1.55;;;1.55;;
64678;SDS011;51094;53.864;27.676;2023-04-25T04:52:30;1.42;;;1.42;;
64678;SDS011;51094;53.864;27.676;2023-04-25T04:55:17;1.80;;;1.80;;
64678;SDS011;51094;53.864;27.676;2023-04-25T04:58:02;1.50;;;1.50;;
64678;SDS011;51094;53.864;27.676;2023-04-25T05:00:47;1.90;;;1.90;;
64678;SDS011;51094;53.864;27.676;2023-04-25T05:03:49;1.80;;;1.80;;
64678;SDS011;51094;53.864;27.676;2023-04-25T05:06:35;1.70;;;1.70;;
64678;SDS011;51094;53.864;27.676;2023-04-25T05:09:32;1.80;;;1.80;;
64678;SDS011;51094;53.864;27.676;2023-04-25T05:12:05;1.75;;;1.75;;
64678;SDS011;51094;53.864;27.676;2023-04-25T05:14:51;1.80;;;1.80;;
64678;SDS011;51094;53.864;27.676;2023-04-25T05:17:36;1.80;;;1.80;;
64678;SDS011;51094;53.864;27.676;2023-04-25T05:20:15;2.00;;;2.00;;
64678;SDS011;51094;53.864;27.676;2023-04-25T05:23:00;1.80;;;1.80;;
64678;SDS011;51094;53.864;27.676;2023-04-25T05:25:53;1.70;;;1.70;;
64678;SDS011;51094;53.864;27.676;2023-04-25T05:28:30;1.65;;;1.65;;
64678;SDS011;51094;53.864;27.676;2023-04-25T05:31:07;2.00;;;2.00;;
64678;SDS011;51094;53.864;27.676;2023-04-25T05:33:59;2.20;;;2.20;;
64678;SDS011;51094;53.864;27.676;2023-04-25T05:36:36;1.73;;;1.73;;
64678;SDS011;51094;53.864;27.676;2023-04-25T05:39:03;1.80;;;1.80;;
64678;SDS011;51094;53.864;27.676;2023-04-25T05:41:49;1.80;;;1.80;;
64678;SDS011;51094;53.864;27.676;2023-04-25T05:44:34;2.05;;;2.05;;
64678;SDS011;51094;53.864;27.676;2023-04-25T05:47:14;1.98;;;1.98;;
64678;SDS011;51094;53.864;27.676;2023-04-25T05:49:56;2.00;;;2.00;;
64678;SDS011;51094;53.864;27.676;2023-04-25T05:52:33;1.98;;;1.98;;
64678;SDS011;51094;53.864;27.676;2023-04-25T05:55:11;2.00;;;2.00;;
64678;SDS011;51094;53.864;27.676;2023-04-25T05:57:38;1.88;;;1.88;;
64678;SDS011;51094;53.864;27.676;2023-04-25T06:00:11;1.90;;;1.90;;
64678;SDS011;51094;53.864;27.676;2023-04-25T06:02:40;2.00;;;2.00;;
64678;SDS011;51094;53.864;27.676;2023-04-25T06:05:08;1.98;;;1.98;;
64678;SDS011;51094;53.864;27.676;2023-04-25T06:07:36;1.80;;;1.80;;
64678;SDS011;51094;53.864;27.676;2023-04-25T06:10:03;2.20;;;2.20;;
64678;SDS011;51094;53.864;27.676;2023-04-25T06:12:35;1.92;;;1.92;;
64678;SDS011;51094;53.864;27.676;2023-04-25T06:15:03;2.00;;;2.00;;
64678;SDS011;51094;53.864;27.676;2023-04-25T06:17:49;1.80;;;1.80;;
64678;SDS011;51094;53.864;27.676;2023-04-25T06:20:19;1.83;;;1.83;;
64678;SDS011;51094;53.864;27.676;2023-04-25T06:22:50;2.00;;;2.00;;
64678;SDS011;51094;53.864;27.676;2023-04-25T06:25:20;1.77;;;1.77;;
64678;SDS011;51094;53.864;27.676;2023-04-25T06:27:47;2.00;;;2.00;;
64678;SDS011;51094;53.864;27.676;2023-04-25T06:30:15;1.95;;;1.95;;
64678;SDS011;51094;53.864;27.676;2023-04-25T06:32:44;1.83;;;1.83;;
64678;SDS011;51094;53.864;27.676;2023-04-25T06:35:11;1.90;;;1.90;;
64678;SDS011;51094;53.864;27.676;2023-04-25T06:37:39;2.00;;;2.00;;
64678;SDS011;51094;53.864;27.676;2023-04-25T06:40:07;1.95;;;1.95;;
64678;SDS011;51094;53.864;27.676;2023-04-25T06:42:34;2.20;;;2.20;;
64678;SDS011;51094;53.864;27.676;2023-04-25T06:45:21;1.98;;;1.98;;
64678;SDS011;51094;53.864;27.676;2023-04-25T06:47:48;1.88;;;1.88;;
64678;SDS011;51094;53.864;27.676;2023-04-25T06:50:15;1.80;;;1.80;;
64678;SDS011;51094;53.864;27.676;2023-04-25T06:52:44;1.70;;;1.70;;
64678;SDS011;51094;53.864;27.676;2023-04-25T06:55:14;1.60;;;1.60;;
64678;SDS011;51094;53.864;27.676;2023-04-25T06:57:56;1.65;;;1.65;;
64678;SDS011;51094;53.864;27.676;2023-04-25T07:00:41;2.25;;;2.25;;
64678;SDS011;51094;53.864;27.676;2023-04-25T07:03:08;1.67;;;1.67;;
64678;SDS011;51094;53.864;27.676;2023-04-25T07:05:39;1.70;;;1.70;;
64678;SDS011;51094;53.864;27.676;2023-04-25T07:08:05;1.90;;;1.90;;
64678;SDS011;51094;53.864;27.676;2023-04-25T07:10:32;1.80;;;1.80;;
64678;SDS011;51094;53.864;27.676;2023-04-25T07:13:03;1.60;;;1.60;;
64678;SDS011;51094;53.864;27.676;2023-04-25T07:15:31;1.60;;;1.60;;
64678;SDS011;51094;53.864;27.676;2023-04-25T07:17:59;1.60;;;1.60;;
64678;SDS011;51094;53.864;27.676;2023-04-25T07:23:33;1.30;;;1.30;;
64678;SDS011;51094;53.864;27.676;2023-04-25T07:26:07;1.50;;;1.50;;
64678;SDS011;51094;53.864;27.676;2023-04-25T07:28:34;1.48;;;1.48;;
64678;SDS011;51094;53.864;27.676;2023-04-25T07:31:01;1.60;;;1.60;;
64678;SDS011;51094;53.864;27.676;2023-04-25T07:33:31;1.80;;;1.80;;
64678;SDS011;51094;53.864;27.676;2023-04-25T07:35:57;1.80;;;1.80;;
64678;SDS011;51094;53.864;27.676;2023-04-25T07:38:24;1.88;;;1.88;;
64678;SDS011;51094;53.864;27.676;2023-04-25T07:40:51;1.70;;;1.70;;
64678;SDS011;51094;53.864;27.676;2023-04-25T07:43:21;1.73;;;1.73;;
64678;SDS011;51094;53.864;27.676;2023-04-25T07:45:54;1.40;;;1.40;;
64678;SDS011;51094;53.864;27.676;2023-04-25T07:48:23;1.35;;;1.35;;
64678;SDS011;51094;53.864;27.676;2023-04-25T07:50:57;1.60;;;1.60;;
64678;SDS011;51094;53.864;27.676;2023-04-25T07:53:27;1.42;;;1.42;;
64678;SDS011;51094;53.864;27.676;2023-04-25T07:56:01;1.40;;;1.40;;
64678;SDS011;51094;53.864;27.676;2023-04-25T08:01:01;1.30;;;1.30;;
64678;SDS011;51094;53.864;27.676;2023-04-25T08:03:51;1.45;;;1.45;;
64678;SDS011;51094;53.864;27.676;2023-04-25T08:06:22;1.60;;;1.60;;
64678;SDS011;51094;53.864;27.676;2023-04-25T08:09:06;1.70;;;1.70;;
64678;SDS011;51094;53.864;27.676;2023-04-25T08:11:37;1.70;;;1.70;;
64678;SDS011;51094;53.864;27.676;2023-04-25T08:14:06;1.70;;;1.70;;
64678;SDS011;51094;53.864;27.676;2023-04-25T08:16:34;1.60;;;1.60;;
64678;SDS011;51094;53.864;27.676;2023-04-25T08:19:01;1.80;;;1.80;;
64678;SDS011;51094;53.864;27.676;2023-04-25T08:21:29;1.58;;;1.58;;
64678;SDS011;51094;53.864;27.676;2023-04-25T08:24:02;1.80;;;1.80;;
64678;SDS011;51094;53.864;27.676;2023-04-25T08:26:33;1.83;;;1.83;;
64678;SDS011;51094;53.864;27.676;2023-04-25T08:29:01;1.85;;;1.85;;
64678;SDS011;51094;53.864;27.676;2023-04-25T08:31:28;1.98;;;1.98;;
64678;SDS011;51094;53.864;27.676;2023-04-25T08:33:59;2.17;;;2.17;;
64678;SDS011;51094;53.864;27.676;2023-04-25T08:36:46;2.10;;;2.10;;
64678;SDS011;51094;53.864;27.676;2023-04-25T08:39:19;2.40;;;2.40;;
64678;SDS011;51094;53.864;27.676;2023-04-25T08:42:10;2.42;;;2.42;;
64678;SDS011;51094;53.864;27.676;2023-04-25T08:44:39;2.10;;;2.10;;
64678;SDS011;51094;53.864;27.676;2023-04-25T08:47:06;2.20;;;2.20;;
64678;SDS011;51094;53.864;27.676;2023-04-25T08:49:41;2.10;;;2.10;;
64678;SDS011;51094;53.864;27.676;2023-04-25T08:52:13;1.65;;;1.65;;
64678;SDS011;51094;53.864;27.676;2023-04-25T08:54:51;1.75;;;1.75;;
64678;SDS011;51094;53.864;27.676;2023-04-25T08:57:20;1.60;;;1.60;;
64678;SDS011;51094;53.864;27.676;2023-04-25T08:59:49;1.75;;;1.75;;
64678;SDS011;51094;53.864;27.676;2023-04-25T09:02:18;1.80;;;1.80;;
64678;SDS011;51094;53.864;27.676;2023-04-25T09:04:50;1.95;;;1.95;;
64678;SDS011;51094;53.864;27.676;2023-04-25T09:07:18;1.95;;;1.95;;
64678;SDS011;51094;53.864;27.676;2023-04-25T09:09:47;2.00;;;2.00;;
64678;SDS011;51094;53.864;27.676;2023-04-25T09:12:20;1.70;;;1.70;;
64678;SDS011;51094;53.864;27.676;2023-04-25T09:15:09;1.80;;;1.80;;
64678;SDS011;51094;53.864;27.676;2023-04-25T09:17:55;1.55;;;1.55;;
64678;SDS011;51094;53.864;27.676;2023-04-25T09:20:30;1.70;;;1.70;;
64678;SDS011;51094;53.864;27.676;2023-04-25T09:23:10;1.50;;;1.50;;
64678;SDS011;51094;53.864;27.676;2023-04-25T09:25:37;1.67;;;1.67;;
64678;SDS011;51094;53.864;27.676;2023-04-25T09:28:11;2.00;;;2.00;;
64678;SDS011;51094;53.864;27.676;2023-04-25T09:30:37;1.90;;;1.90;;
64678;SDS011;51094;53.864;27.676;2023-04-25T09:33:09;2.10;;;2.10;;
64678;SDS011;51094;53.864;27.676;2023-04-25T09:35:43;1.80;;;1.80;;
64678;SDS011;51094;53.864;27.676;2023-04-25T09:38:19;1.80;;;1.80;;
64678;SDS011;51094;53.864;27.676;2023-04-25T09:40:56;1.65;;;1.65;;
64678;SDS011;51094;53.864;27.676;2023-04-25T09:43:37;1.58;;;1.58;;
64678;SDS011;51094;53.864;27.676;2023-04-25T09:46:11;1.50;;;1.50;;
64678;SDS011;51094;53.864;27.676;2023-04-25T09:48:47;1.40;;;1.40;;
64678;SDS011;51094;53.864;27.676;2023-04-25T09:51:22;1.50;;;1.50;;
64678;SDS011;51094;53.864;27.676;2023-04-25T09:53:54;1.50;;;1.50;;
64678;SDS011;51094;53.864;27.676;2023-04-25T09:56:41;1.60;;;1.60;;
64678;SDS011;51094;53.864;27.676;2023-04-25T09:59:09;1.70;;;1.70;;
64678;SDS011;51094;53.864;27.676;2023-04-25T10:01:38;1.80;;;1.80;;
64678;SDS011;51094;53.864;27.676;2023-04-25T10:04:19;1.60;;;1.60;;
64678;SDS011;51094;53.864;27.676;2023-04-25T10:07:06;1.60;;;1.60;;
64678;SDS011;51094;53.864;27.676;2023-04-25T10:09:38;1.40;;;1.40;;
64678;SDS011;51094;53.864;27.676;2023-04-25T10:12:06;1.48;;;1.48;;
64678;SDS011;51094;53.864;27.676;2023-04-25T10:14:34;1.50;;;1.50;;
64678;SDS011;51094;53.864;27.676;2023-04-25T10:17:02;1.50;;;1.50;;
64678;SDS011;51094;53.864;27.676;2023-04-25T10:19:29;1.58;;;1.58;;
64678;SDS011;51094;53.864;27.676;2023-04-25T10:22:11;1.40;;;1.40;;
64678;SDS011;51094;53.864;27.676;2023-04-25T10:24:43;1.48;;;1.48;;
64678;SDS011;51094;53.864;27.676;2023-04-25T10:27:14;1.40;;;1.40;;
64678;SDS011;51094;53.864;27.676;2023-04-25T10:29:43;1.20;;;1.20;;
64678;SDS011;51094;53.864;27.676;2023-04-25T10:32:10;1.30;;;1.30;;
64678;SDS011;51094;53.864;27.676;2023-04-25T10:34:41;1.30;;;1.30;;
64678;SDS011;51094;53.864;27.676;2023-04-25T10:37:13;1.23;;;1.23;;
64678;SDS011;51094;53.864;27.676;2023-04-25T10:39:40;1.40;;;1.40;;
64678;SDS011;51094;53.864;27.676;2023-04-25T10:42:09;1.23;;;1.23;;
64678;SDS011;51094;53.864;27.676;2023-04-25T10:44:37;1.30;;;1.30;;
64678;SDS011;51094;53.864;27.676;2023-04-25T10:47:06;1.30;;;1.30;;
64678;SDS011;51094;53.864;27.676;2023-04-25T10:49:41;1.30;;;1.30;;
64678;SDS011;51094;53.864;27.676;2023-04-25T10:54:56;1.27;;;1.27;;
64678;SDS011;51094;53.864;27.676;2023-04-25T10:59:58;1.30;;;1.30;;
64678;SDS011;51094;53.864;27.676;2023-04-25T11:02:30;1.30;;;1.30;;
64678;SDS011;51094;53.864;27.676;2023-04-25T11:04:58;1.40;;;1.40;;
64678;SDS011;51094;53.864;27.676;2023-04-25T11:10:32;1.33;;;1.33;;
64678;SDS011;51094;53.864;27.676;2023-04-25T11:13:02;1.20;;;1.20;;
64678;SDS011;51094;53.864;27.676;2023-04-25T11:15:29;1.20;;;1.20;;
64678;SDS011;51094;53.864;27.676;2023-04-25T11:18:02;1.20;;;1.20;;
64678;SDS011;51094;53.864;27.676;2023-04-25T11:20:30;1.40;;;1.40;;
64678;SDS011;51094;53.864;27.676;2023-04-25T11:22:57;1.33;;;1.33;;
64678;SDS011;51094;53.864;27.676;2023-04-25T11:25:35;1.58;;;1.58;;
64678;SDS011;51094;53.864;27.676;2023-04-25T11:30:33;1.20;;;1.20;;
64678;SDS011;51094;53.864;27.676;2023-04-25T11:33:06;1.20;;;1.20;;
64678;SDS011;51094;53.864;27.676;2023-04-25T11:35:33;1.30;;;1.30;;
64678;SDS011;51094;53.864;27.676;2023-04-25T11:38:00;1.20;;;1.20;;
64678;SDS011;51094;53.864;27.676;2023-04-25T11:40:27;1.10;;;1.10;;
64678;SDS011;51094;53.864;27.676;2023-04-25T11:43:00;1.40;;;1.40;;
64678;SDS011;51094;53.864;27.676;2023-04-25T11:45:32;1.10;;;1.10;;
64678;SDS011;51094;53.864;27.676;2023-04-25T11:47:59;1.10;;;1.10;;
64678;SDS011;51094;53.864;27.676;2023-04-25T11:50:28;1.55;;;1.45;;
64678;SDS011;51094;53.864;27.676;2023-04-25T11:52:56;1.10;;;1.10;;
64678;SDS011;51094;53.864;27.676;2023-04-25T11:55:23;1.13;;;1.13;;
64678;SDS011;51094;53.864;27.676;2023-04-25T11:57:50;1.30;;;1.30;;
64678;SDS011;51094;53.864;27.676;2023-04-25T12:00:20;1.10;;;1.10;;
64678;SDS011;51094;53.864;27.676;2023-04-25T12:02:52;0.80;;;0.80;;
64678;SDS011;51094;53.864;27.676;2023-04-25T12:05:29;0.90;;;0.90;;
64678;SDS011;51094;53.864;27.676;2023-04-25T12:08:09;0.90;;;0.90;;
64678;SDS011;51094;53.864;27.676;2023-04-25T12:10:42;1.10;;;1.10;;
64678;SDS011;51094;53.864;27.676;2023-04-25T12:15:48;1.20;;;1.20;;
64678;SDS011;51094;53.864;27.676;2023-04-25T12:18:22;1.25;;;1.25;;
64678;SDS011;51094;53.864;27.676;2023-04-25T12:20:52;1.40;;;1.40;;
64678;SDS011;51094;53.864;27.676;2023-04-25T12:23:29;1.40;;;1.40;;
64678;SDS011;51094;53.864;27.676;2023-04-25T12:25:57;1.40;;;1.40;;
64678;SDS011;51094;53.864;27.676;2023-04-25T12:28:24;1.30;;;1.30;;
64678;SDS011;51094;53.864;27.676;2023-04-25T12:33:24;1.00;;;1.00;;
64678;SDS011;51094;53.864;27.676;2023-04-25T12:35:53;1.00;;;1.00;;
64678;SDS011;51094;53.864;27.676;2023-04-25T12:38:24;0.90;;;0.90;;
64678;SDS011;51094;53.864;27.676;2023-04-25T12:40:52;0.80;;;0.80;;
64678;SDS011;51094;53.864;27.676;2023-04-25T12:43:20;0.95;;;0.95;;
64678;SDS011;51094;53.864;27.676;2023-04-25T12:45:48;0.90;;;0.90;;
64678;SDS011;51094;53.864;27.676;2023-04-25T12:48:19;0.80;;;0.80;;
64678;SDS011;51094;53.864;27.676;2023-04-25T12:50:47;0.93;;;0.93;;
64678;SDS011;51094;53.864;27.676;2023-04-25T12:53:19;0.75;;;0.75;;
64678;SDS011;51094;53.864;27.676;2023-04-25T12:55:47;0.90;;;0.90;;
64678;SDS011;51094;53.864;27.676;2023-04-25T12:58:17;1.00;;;0.90;;
64678;SDS011;51094;53.864;27.676;2023-04-25T13:00:46;0.90;;;0.90;;
64678;SDS011;51094;53.864;27.676;2023-04-25T13:03:14;1.00;;;1.00;;
64678;SDS011;51094;53.864;27.676;2023-04-25T13:05:41;0.90;;;0.90;;
64678;SDS011;51094;53.864;27.676;2023-04-25T13:08:08;0.80;;;0.80;;
64678;SDS011;51094;53.864;27.676;2023-04-25T13:10:35;0.90;;;0.90;;
64678;SDS011;51094;53.864;27.676;2023-04-25T13:13:06;0.90;;;0.90;;
64678;SDS011;51094;53.864;27.676;2023-04-25T13:15:33;0.80;;;0.80;;
64678;SDS011;51094;53.864;27.676;2023-04-25T13:18:03;0.90;;;0.90;;
64678;SDS011;51094;53.864;27.676;2023-04-25T13:20:32;0.90;;;0.90;;
64678;SDS011;51094;53.864;27.676;2023-04-25T13:22:59;0.90;;;0.90;;
64678;SDS011;51094;53.864;27.676;2023-04-25T13:25:28;0.80;;;0.80;;
64678;SDS011;51094;53.864;27.676;2023-04-25T13:27:55;0.93;;;0.93;;
64678;SDS011;51094;53.864;27.676;2023-04-25T13:30:22;1.00;;;1.00;;
64678;SDS011;51094;53.864;27.676;2023-04-25T13:32:49;0.80;;;0.80;;
64678;SDS011;51094;53.864;27.676;2023-04-25T13:35:16;0.70;;;0.70;;
64678;SDS011;51094;53.864;27.676;2023-04-25T13:37:43;0.85;;;0.85;;
64678;SDS011;51094;53.864;27.676;2023-04-25T13:42:38;0.90;;;0.90;;
64678;SDS011;51094;53.864;27.676;2023-04-25T13:45:06;0.80;;;0.80;;
64678;SDS011;51094;53.864;27.676;2023-04-25T13:47:34;1.00;;;1.00;;
64678;SDS011;51094;53.864;27.676;2023-04-25T13:52:32;0.80;;;0.80;;
64678;SDS011;51094;53.864;27.676;2023-04-25T13:54:58;1.10;;;1.10;;
64678;SDS011;51094;53.864;27.676;2023-04-25T13:57:26;0.90;;;0.90;;
64678;SDS011;51094;53.864;27.676;2023-04-25T13:59:52;0.90;;;0.90;;
64678;SDS011;51094;53.864;27.676;2023-04-25T14:02:25;0.90;;;0.90;;
64678;SDS011;51094;53.864;27.676;2023-04-25T14:04:54;1.00;;;1.00;;
64678;SDS011;51094;53.864;27.676;2023-04-25T14:07:21;1.00;;;1.00;;
64678;SDS011;51094;53.864;27.676;2023-04-25T14:09:48;0.80;;;0.80;;
64678;SDS011;51094;53.864;27.676;2023-04-25T14:12:22;0.88;;;0.88;;
64678;SDS011;51094;53.864;27.676;2023-04-25T14:14:49;0.82;;;0.82;;
64678;SDS011;51094;53.864;27.676;2023-04-25T14:17:16;0.90;;;0.90;;
64678;SDS011;51094;53.864;27.676;2023-04-25T14:19:46;0.98;;;0.98;;
64678;SDS011;51094;53.864;27.676;2023-04-25T14:22:14;1.10;;;1.10;;
64678;SDS011;51094;53.864;27.676;2023-04-25T14:24:45;0.90;;;0.90;;
64678;SDS011;51094;53.864;27.676;2023-04-25T14:27:17;0.90;;;0.90;;
64678;SDS011;51094;53.864;27.676;2023-04-25T14:29:43;1.00;;;1.00;;
64678;SDS011;51094;53.864;27.676;2023-04-25T14:32:10;0.95;;;0.95;;
64678;SDS011;51094;53.864;27.676;2023-04-25T14:34:43;0.93;;;0.93;;
64678;SDS011;51094;53.864;27.676;2023-04-25T14:37:09;1.00;;;1.00;;
64678;SDS011;51094;53.864;27.676;2023-04-25T14:42:06;0.80;;;0.80;;
64678;SDS011;51094;53.864;27.676;2023-04-25T14:44:33;0.90;;;0.90;;
64678;SDS011;51094;53.864;27.676;2023-04-25T14:47:03;0.90;;;0.90;;
64678;SDS011;51094;53.864;27.676;2023-04-25T14:49:33;0.90;;;0.90;;
64678;SDS011;51094;53.864;27.676;2023-04-25T14:54:30;1.00;;;1.00;;
64678;SDS011;51094;53.864;27.676;2023-04-25T14:56:59;1.15;;;1.15;;
64678;SDS011;51094;53.864;27.676;2023-04-25T14:59:27;1.20;;;1.20;;
64678;SDS011;51094;53.864;27.676;2023-04-25T15:01:56;1.10;;;1.10;;
64678;SDS011;51094;53.864;27.676;2023-04-25T15:04:28;1.00;;;1.00;;
64678;SDS011;51094;53.864;27.676;2023-04-25T15:06:55;0.95;;;0.95;;
64678;SDS011;51094;53.864;27.676;2023-04-25T15:09:24;1.00;;;1.00;;
64678;SDS011;51094;53.864;27.676;2023-04-25T15:11:51;1.00;;;1.00;;
64678;SDS011;51094;53.864;27.676;2023-04-25T15:14:18;1.10;;;1.10;;
64678;SDS011;51094;53.864;27.676;2023-04-25T15:16:47;1.20;;;1.20;;
64678;SDS011;51094;53.864;27.676;2023-04-25T15:19:14;1.10;;;1.10;;
64678;SDS011;51094;53.864;27.676;2023-04-25T15:21:41;0.90;;;0.90;;
64678;SDS011;51094;53.864;27.676;2023-04-25T15:24:10;1.00;;;1.00;;
64678;SDS011;51094;53.864;27.676;2023-04-25T15:26:40;0.95;;;0.95;;
64678;SDS011;51094;53.864;27.676;2023-04-25T15:29:12;1.10;;;1.10;;
64678;SDS011;51094;53.864;27.676;2023-04-25T15:31:42;1.08;;;1.08;;
64678;SDS011;51094;53.864;27.676;2023-04-25T15:34:13;1.08;;;1.05;;